• Join FlightAware (Why Join?)
  • Login
  • US Flag 
10:13PM EST


 

Airport Tracker/Info


-or-


 

Live Flight TrackerFlight Track Log ✈ AFL1106 ✈ 16-May-2014 ✈ UUEE / SVO - URKK / KRR

Flight Track Log - Related Links

Times and Time Zones

All times are in EDT time to prevent confusion due to time zone crossing. See the AFL1106 flight status page for this flight to view local times or setup timezone preferences in your user account.

Time Position Orientation Groundspeed Altitude Reporting Facility
EDT Latitude Longitude Course Direction KTS MPH feet Rate Location/Type
09:38AM 55.6449 37.5210 174° South  Level Estimated
09:39AM 55.5499 37.5396 174° South  Level Estimated
09:40AM 55.4549 37.5581 174° South  Level Estimated
09:41AM 55.3600 37.5765 174° South  Level Estimated
09:42AM 55.2650 37.5948 174° South  Level Estimated
09:43AM 55.1700 37.6130 174° South  Level Estimated
09:44AM 55.0750 37.6311 174° South  Level Estimated
09:45AM 54.9800 37.6492 174° South  Level Estimated
09:46AM 54.8851 37.6671 174° South  Level Estimated
09:47AM 54.7901 37.6850 174° South  Level Estimated
09:48AM 54.6951 37.7028 174° South  Level Estimated
09:49AM 54.6001 37.7205 174° South  Level Estimated
09:50AM 54.5051 37.7381 174° South  Level Estimated
09:51AM 54.4101 37.7557 174° South  Level Estimated
09:52AM 54.3151 37.7731 174° South  Level Estimated
09:53AM 54.2201 37.7905 174° South  Level Estimated
09:54AM 54.1251 37.8078 174° South  Level Estimated
09:55AM 54.0300 37.8251 174° South  Level Estimated
09:56AM 53.9426 37.8408 174° South  Level Estimated
09:57AM 53.8552 37.8565 174° South  Level Estimated
09:58AM 53.7678 37.8722 174° South  Level Estimated
09:59AM 53.6804 37.8878 174° South  Level Estimated
10:00AM 53.5930 37.9033 174° South  Level Estimated
10:01AM 53.5056 37.9187 174° South  Level Estimated
10:02AM 53.4181 37.9341 174° South  Level Estimated
10:03AM 53.3307 37.9495 174° South  Level Estimated
10:04AM 53.2433 37.9647 174° South  Level Estimated
10:05AM 53.1558 37.9799 174° South  Level Estimated
10:06AM 53.0684 37.9950 174° South  Level Estimated
10:07AM 52.9810 38.0101 174° South  Level Estimated
10:08AM 52.8935 38.0251 174° South  Level Estimated
10:09AM 52.8061 38.0401 174° South  Level Estimated
10:10AM 52.7187 38.0550 174° South  Level Estimated
10:11AM 52.6312 38.0698 174° South  Level Estimated
10:12AM 52.5438 38.0846 174° South  Level Estimated
10:13AM 52.4563 38.0993 174° South  Level Estimated
10:14AM 52.3689 38.1140 174° South  Level Estimated
10:15AM 52.2814 38.1286 174° South  Level Estimated
10:16AM 52.1940 38.1431 174° South  Level Estimated
10:17AM 52.1065 38.1576 174° South  Level Estimated
10:18AM 52.0191 38.1720 174° South  Level Estimated
10:19AM 51.9316 38.1864 174° South  Level Estimated
10:20AM 51.8442 38.2007 174° South  Level Estimated
10:21AM 51.7567 38.2150 174° South  Level Estimated
10:22AM 51.6693 38.2292 174° South  Level Estimated
10:23AM 51.5818 38.2434 174° South  Level Estimated
10:24AM 51.4943 38.2575 174° South  Level Estimated
10:25AM 51.4069 38.2715 174° South  Level Estimated
10:26AM 51.3194 38.2855 174° South  Level Estimated
10:27AM 51.2319 38.2994 174° South  Level Estimated
10:28AM 51.1445 38.3133 174° South  Level Estimated
10:29AM 51.0570 38.3271 174° South  Level Estimated
10:30AM 50.9695 38.3409 174° South  Level Estimated
10:31AM 50.8820 38.3546 174° South  Level Estimated
10:32AM 50.7946 38.3683 174° South  Level Estimated
10:33AM 50.7071 38.3820 174° South  Level Estimated
10:34AM 50.6196 38.3955 174° South  Level Estimated
10:35AM 50.5321 38.4090 174° South  Level Estimated
10:36AM 50.4446 38.4225 174° South  Level Estimated
10:37AM 50.3571 38.4360 174° South  Level Estimated
10:38AM 50.2697 38.4493 174° South  Level Estimated
10:39AM 50.1822 38.4627 174° South  Level Estimated
10:40AM 50.0947 38.4759 174° South  Level Estimated
10:41AM 50.0072 38.4892 174° South  Level Estimated
10:42AM 49.9197 38.5023 174° South  Level Estimated
10:43AM 49.8322 38.5155 174° South  Level Estimated
10:44AM 49.7447 38.5286 174° South  Level Estimated
10:45AM 49.6572 38.5416 174° South  Level Estimated
10:46AM 49.5697 38.5546 174° South  Level Estimated
10:47AM 49.4822 38.5675 175° South  Level Estimated
10:48AM 49.3947 38.5804 175° South  Level Estimated
10:49AM 49.3072 38.5933 175° South  Level Estimated
10:50AM 49.2197 38.6061 175° South  Level Estimated
10:51AM 49.1322 38.6189 175° South  Level Estimated
10:52AM 49.0447 38.6316 175° South  Level Estimated
10:53AM 48.9572 38.6442 175° South  Level Estimated
10:54AM 48.8697 38.6569 175° South  Level Estimated
10:55AM 48.7822 38.6695 175° South  Level Estimated
10:56AM 48.6946 38.6820 175° South  Level Estimated
10:57AM 48.6071 38.6945 175° South  Level Estimated
10:58AM 48.5196 38.7070 175° South  Level Estimated
10:59AM 48.4321 38.7194 175° South  Level Estimated
11:00AM 48.3446 38.7317 175° South  Level Estimated
11:01AM 48.2571 38.7440 175° South  Level Estimated
11:02AM 48.1695 38.7563 175° South  Level Estimated
11:03AM 48.0820 38.7686 175° South  Level Estimated
11:04AM 47.9945 38.7808 175° South  Level Estimated
11:05AM 47.9070 38.7929 175° South  Level Estimated
11:06AM 47.8194 38.8050 175° South  Level Estimated
11:07AM 47.7319 38.8171 175° South  Level Estimated
11:08AM 47.6444 38.8292 175° South  Level Estimated
11:09AM 47.5569 38.8412 175° South  Level Estimated
11:10AM 47.4693 38.8531 175° South  Level Estimated
11:11AM 47.3818 38.8650 175° South  Level Estimated
11:12AM 47.2943 38.8769 175° South  Level Estimated
11:13AM 47.2067 38.8887 175° South  Level Estimated
11:14AM 47.1192 38.9006 175° South  Level Estimated
11:15AM 47.0317 38.9123 175° South  Level Estimated
11:16AM 46.9441 38.9240 175° South  Level Estimated
11:17AM 46.8566 38.9357 175° South  Level Estimated
11:18AM 46.7690 38.9474 175° South  Level Estimated
11:19AM 46.6815 38.9590 175° South  Level Estimated
11:20AM 46.5939 38.9705 175° South  Level Estimated
11:21AM 46.5064 38.9821 175° South  Level Estimated
11:22AM 46.4189 38.9936 175° South  Level Estimated
11:23AM 46.3313 39.0050 175° South  Level Estimated
11:24AM 46.2438 39.0164 175° South  Level Estimated
11:25AM 46.1562 39.0278 175° South  Level Estimated
11:26AM 46.0687 39.0392 175° South  Level Estimated
11:27AM 45.9811 39.0505 175° South  Level Estimated
11:28AM 45.8936 39.0618 175° South  Level Estimated